createdAt,value
2022-11-26T00:00:19.589Z,15.40
2022-11-26T00:02:48.743Z,15.40
2022-11-26T00:05:17.744Z,14.13
2022-11-26T00:07:58.146Z,15.27
2022-11-26T00:10:34.832Z,15.77
2022-11-26T00:13:02.943Z,14.20
2022-11-26T00:15:32.479Z,12.93
2022-11-26T00:18:00.090Z,14.53
2022-11-26T00:20:32.078Z,12.80
2022-11-26T00:23:04.435Z,14.37
2022-11-26T00:25:46.222Z,13.27
2022-11-26T00:28:38.430Z,15.13
2022-11-26T00:31:16.643Z,14.90
2022-11-26T00:33:44.369Z,13.93
2022-11-26T00:36:31.337Z,15.67
2022-11-26T00:39:23.934Z,16.13
2022-11-26T00:41:53.695Z,14.57
2022-11-26T00:44:25.629Z,13.70
2022-11-26T00:46:53.649Z,16.03
2022-11-26T00:49:21.236Z,14.90
2022-11-26T00:51:49.187Z,14.70
2022-11-26T00:54:20.054Z,15.33
2022-11-26T00:56:50.774Z,16.53
2022-11-26T00:59:23.766Z,15.83
2022-11-26T01:01:51.480Z,15.80
2022-11-26T01:04:19.116Z,17.10
2022-11-26T01:06:47.171Z,15.87
2022-11-26T01:09:22.209Z,17.67
2022-11-26T01:11:54.022Z,17.93
2022-11-26T01:14:24.074Z,18.40
2022-11-26T01:16:56.653Z,15.73
2022-11-26T01:19:24.349Z,18.30
2022-11-26T01:21:52.596Z,16.07
2022-11-26T01:24:20.125Z,16.63
2022-11-26T01:26:47.874Z,18.33
2022-11-26T01:29:19.957Z,20.47
2022-11-26T01:31:48.492Z,18.17
2022-11-26T01:34:16.094Z,21.77
2022-11-26T01:36:44.578Z,19.47
2022-11-26T01:39:23.728Z,19.47
2022-11-26T01:42:32.537Z,20.40
2022-11-26T01:45:00.132Z,17.40
2022-11-26T01:47:31.063Z,17.30
2022-11-26T01:50:32.039Z,17.67
2022-11-26T01:53:33.243Z,18.30
2022-11-26T01:56:30.940Z,19.23
2022-11-26T01:59:25.967Z,18.57
2022-11-26T02:01:58.936Z,17.17
2022-11-26T02:04:46.832Z,17.43
2022-11-26T02:07:14.465Z,17.10
2022-11-26T02:09:43.214Z,16.13
2022-11-26T02:12:11.149Z,14.83
2022-11-26T02:14:44.786Z,14.80
2022-11-26T02:17:35.216Z,15.93
2022-11-26T02:21:03.339Z,16.73
2022-11-26T02:24:28.380Z,14.93
2022-11-26T02:27:33.458Z,14.90
2022-11-26T02:30:14.830Z,15.27
2022-11-26T02:33:20.746Z,17.10
2022-11-26T02:36:22.734Z,15.20
2022-11-26T02:38:51.320Z,15.00
2022-11-26T02:41:19.173Z,14.93
2022-11-26T02:43:48.535Z,15.50
2022-11-26T02:46:22.031Z,13.73
2022-11-26T02:48:53.300Z,15.10
2022-11-26T02:51:33.394Z,14.80
2022-11-26T02:54:06.691Z,15.00
2022-11-26T02:56:35.588Z,14.97
2022-11-26T02:59:04.195Z,15.30
2022-11-26T03:01:58.794Z,15.40
2022-11-26T03:04:40.975Z,13.63
2022-11-26T03:07:14.947Z,14.20
2022-11-26T03:09:59.169Z,12.30
2022-11-26T03:12:29.032Z,14.13
2022-11-26T03:14:57.393Z,12.60
2022-11-26T03:17:24.989Z,12.10
2022-11-26T03:19:53.431Z,12.93
2022-11-26T03:22:20.971Z,14.10
2022-11-26T03:24:48.557Z,13.77
2022-11-26T03:27:16.221Z,15.43
2022-11-26T03:29:43.754Z,12.90
2022-11-26T03:32:11.350Z,14.77
2022-11-26T03:34:39.992Z,16.07
2022-11-26T03:37:07.814Z,14.83
2022-11-26T03:39:35.520Z,15.17
2022-11-26T03:42:03.918Z,15.47
2022-11-26T03:44:31.591Z,13.47
2022-11-26T03:46:59.253Z,16.60
2022-11-26T03:49:27.119Z,17.10
2022-11-26T03:51:54.746Z,16.50
2022-11-26T03:54:22.361Z,17.27
2022-11-26T03:56:50.051Z,16.20
2022-11-26T03:59:17.624Z,15.20
2022-11-26T04:01:45.779Z,15.27
2022-11-26T04:04:13.350Z,17.27
2022-11-26T04:06:41.450Z,15.50
2022-11-26T04:09:09.155Z,15.20
2022-11-26T04:11:36.839Z,16.30
2022-11-26T04:14:04.607Z,15.90
2022-11-26T04:16:32.339Z,16.40
2022-11-26T04:19:00.797Z,16.60
2022-11-26T04:21:28.582Z,16.90
2022-11-26T04:23:56.190Z,14.87
2022-11-26T04:26:24.167Z,16.27
2022-11-26T04:28:51.841Z,17.00
2022-11-26T04:31:19.537Z,16.63
2022-11-26T04:33:47.203Z,16.60
2022-11-26T04:36:14.804Z,14.97
2022-11-26T04:38:42.629Z,16.30
2022-11-26T04:41:10.328Z,16.07
2022-11-26T04:43:37.937Z,15.47
2022-11-26T04:46:06.696Z,16.27
2022-11-26T04:48:34.526Z,16.50
2022-11-26T04:51:02.461Z,16.77
2022-11-26T04:53:30.025Z,17.63
2022-11-26T04:55:57.627Z,17.50
2022-11-26T04:58:25.412Z,17.57
2022-11-26T05:00:53.194Z,18.17
2022-11-26T05:03:21.076Z,15.60
2022-11-26T05:05:48.848Z,16.20
2022-11-26T05:08:16.406Z,18.10
2022-11-26T05:10:44.089Z,16.73
2022-11-26T05:13:11.736Z,17.37
2022-11-26T05:15:39.461Z,15.97
2022-11-26T05:18:07.070Z,16.27
2022-11-26T05:20:34.659Z,15.70
2022-11-26T05:23:02.326Z,15.80
2022-11-26T05:25:30.056Z,18.93
2022-11-26T05:27:57.557Z,16.53
2022-11-26T05:30:25.820Z,16.63
2022-11-26T05:32:53.502Z,18.60
2022-11-26T05:35:22.875Z,19.50
2022-11-26T05:37:50.608Z,19.93
2022-11-26T05:40:18.714Z,19.20
2022-11-26T05:42:46.422Z,18.70
2022-11-26T05:45:13.986Z,18.00
2022-11-26T05:47:41.676Z,18.73
2022-11-26T05:50:10.528Z,17.87
2022-11-26T05:52:38.277Z,19.43
2022-11-26T05:55:07.435Z,18.90
2022-11-26T05:57:35.079Z,18.80
2022-11-26T06:00:02.797Z,17.50
2022-11-26T06:02:39.766Z,18.10
2022-11-26T06:05:09.467Z,21.00
2022-11-26T06:07:43.282Z,18.80
2022-11-26T06:10:14.306Z,16.30
2022-11-26T06:12:41.951Z,16.80
2022-11-26T06:15:10.876Z,17.20
2022-11-26T06:17:38.533Z,17.73
2022-11-26T06:20:07.938Z,19.27
2022-11-26T06:22:41.032Z,16.10
2022-11-26T06:25:13.760Z,14.97
2022-11-26T06:27:42.586Z,15.37
2022-11-26T06:30:12.822Z,15.03
2022-11-26T06:32:40.479Z,15.73
2022-11-26T06:35:08.901Z,17.60
2022-11-26T06:37:36.886Z,18.17
2022-11-26T06:40:06.051Z,15.00
2022-11-26T06:42:33.785Z,14.90
2022-11-26T06:45:01.516Z,14.73
2022-11-26T06:47:29.141Z,16.03
2022-11-26T06:49:56.839Z,15.07
2022-11-26T06:52:24.403Z,14.33
2022-11-26T06:54:52.003Z,16.03
2022-11-26T06:57:20.156Z,15.07
2022-11-26T06:59:48.332Z,14.83
2022-11-26T07:02:16.078Z,15.70
2022-11-26T07:04:43.796Z,15.30
2022-11-26T07:07:12.031Z,16.47
2022-11-26T07:09:41.263Z,14.40
2022-11-26T07:12:09.037Z,15.50
2022-11-26T07:14:37.052Z,14.80
2022-11-26T07:17:05.134Z,14.50
2022-11-26T07:19:32.709Z,15.83
2022-11-26T07:22:00.380Z,16.20
2022-11-26T07:24:28.079Z,15.40
2022-11-26T07:26:59.636Z,13.87
2022-11-26T07:29:28.151Z,17.60
2022-11-26T07:31:56.583Z,16.50
2022-11-26T07:34:24.239Z,17.60
2022-11-26T07:36:55.326Z,18.23
2022-11-26T07:39:25.683Z,18.80
2022-11-26T07:41:53.262Z,19.33
2022-11-26T07:44:21.007Z,16.27
2022-11-26T07:46:48.651Z,17.77
2022-11-26T07:49:17.107Z,19.20
2022-11-26T07:51:45.675Z,18.77
2022-11-26T07:54:13.278Z,20.37
2022-11-26T07:56:40.950Z,22.20
2022-11-26T07:59:09.508Z,20.37
2022-11-26T08:01:37.967Z,19.33
2022-11-26T08:04:07.803Z,19.40
2022-11-26T08:06:35.501Z,21.70
2022-11-26T08:09:05.318Z,20.10
2022-11-26T08:11:34.809Z,19.77
2022-11-26T08:14:13.229Z,18.47
2022-11-26T08:16:41.905Z,18.53
2022-11-26T08:19:14.313Z,20.23
2022-11-26T08:21:42.598Z,19.63
2022-11-26T08:24:18.167Z,19.60
2022-11-26T08:26:46.540Z,20.80
2022-11-26T08:29:15.414Z,20.30
2022-11-26T08:31:46.533Z,16.80
2022-11-26T08:34:17.407Z,19.50
2022-11-26T08:36:46.292Z,17.00
2022-11-26T08:39:19.011Z,17.70
2022-11-26T08:41:52.160Z,16.57
2022-11-26T08:44:23.357Z,17.00
2022-11-26T08:46:51.266Z,15.40
2022-11-26T08:49:18.977Z,17.60
2022-11-26T08:51:47.157Z,14.80
2022-11-26T08:54:14.847Z,17.60
2022-11-26T08:56:42.452Z,15.93
2022-11-26T08:59:10.596Z,14.30
2022-11-26T09:01:38.221Z,15.10
2022-11-26T09:04:06.328Z,14.70
2022-11-26T09:06:37.184Z,13.40
2022-11-26T09:09:13.709Z,13.80
2022-11-26T09:11:59.512Z,14.87
2022-11-26T09:14:39.674Z,12.90
2022-11-26T09:17:09.994Z,14.43
2022-11-26T09:19:37.598Z,14.80
2022-11-26T09:22:05.905Z,13.53
2022-11-26T09:24:33.679Z,14.13
2022-11-26T09:27:07.322Z,13.40
2022-11-26T09:29:36.258Z,12.40
2022-11-26T09:34:53.616Z,12.37
2022-11-26T09:37:21.269Z,12.03
2022-11-26T09:39:49.872Z,12.27
2022-11-26T09:43:20.445Z,11.40
2022-11-26T09:45:59.499Z,13.13
2022-11-26T09:48:34.073Z,11.40
2022-11-26T09:51:16.080Z,11.60
2022-11-26T09:53:50.738Z,11.30
2022-11-26T09:56:27.882Z,10.50
2022-11-26T09:59:07.033Z,11.33
2022-11-26T10:01:35.567Z,11.37
2022-11-26T10:04:09.510Z,11.37
2022-11-26T10:07:20.261Z,12.53
2022-11-26T10:10:30.110Z,9.27
2022-11-26T10:13:44.920Z,11.37
2022-11-26T10:16:38.123Z,9.77
2022-11-26T10:19:42.896Z,11.43
2022-11-26T10:22:57.132Z,11.40
2022-11-26T10:25:38.979Z,10.00
2022-11-26T10:28:43.530Z,10.37
2022-11-26T10:31:25.918Z,8.40
2022-11-26T10:34:11.191Z,8.40
2022-11-26T10:36:46.112Z,8.47
2022-11-26T10:39:20.722Z,7.17
2022-11-26T10:41:49.045Z,8.20
2022-11-26T10:44:37.126Z,8.10
2022-11-26T10:47:34.286Z,8.20
2022-11-26T10:50:25.092Z,7.00
2022-11-26T10:52:53.976Z,7.20
2022-11-26T10:55:37.706Z,6.50
2022-11-26T10:58:21.207Z,6.20
2022-11-26T11:01:04.223Z,5.40
2022-11-26T11:04:10.048Z,6.40
2022-11-26T11:06:44.812Z,6.20
2022-11-26T11:09:38.202Z,5.57
2022-11-26T11:12:23.797Z,5.13
2022-11-26T11:14:53.560Z,5.80
2022-11-26T11:17:41.028Z,5.57
2022-11-26T11:20:18.005Z,5.07
2022-11-26T11:22:47.959Z,5.33
2022-11-26T11:25:39.914Z,4.70
2022-11-26T11:28:26.531Z,5.40
2022-11-26T11:31:17.972Z,6.07
2022-11-26T11:33:46.568Z,5.83
2022-11-26T11:36:14.031Z,4.90
2022-11-26T11:39:00.481Z,4.53
2022-11-26T11:41:42.135Z,6.23
2022-11-26T11:44:23.970Z,5.70
2022-11-26T11:47:33.011Z,4.80
2022-11-26T11:50:44.020Z,5.47
2022-11-26T11:53:50.423Z,5.03
2022-11-26T11:56:41.651Z,5.30
2022-11-26T12:00:20.164Z,4.77
2022-11-26T12:03:56.553Z,4.73
2022-11-26T12:07:37.141Z,5.43
2022-11-26T12:11:05.985Z,5.30
2022-11-26T12:13:52.374Z,5.10
2022-11-26T12:16:27.883Z,5.00
2022-11-26T12:19:24.842Z,5.13
2022-11-26T12:22:29.163Z,4.53
2022-11-26T12:25:36.922Z,5.10
2022-11-26T12:28:39.635Z,4.87
2022-11-26T12:31:49.877Z,5.37
2022-11-26T12:34:34.262Z,4.90
2022-11-26T12:37:33.815Z,5.13
2022-11-26T12:40:48.209Z,6.67
2022-11-26T12:44:19.396Z,4.90
2022-11-26T12:47:29.548Z,5.53
2022-11-26T12:50:54.006Z,5.53
2022-11-26T12:54:15.858Z,6.17
2022-11-26T12:57:03.890Z,5.50
2022-11-26T12:59:59.930Z,5.33
2022-11-26T13:02:41.455Z,5.37
2022-11-26T13:05:34.058Z,5.23
2022-11-26T13:08:49.674Z,5.20
2022-11-26T13:11:56.767Z,5.40
2022-11-26T13:15:16.946Z,4.90
2022-11-26T13:17:50.064Z,5.23
2022-11-26T13:21:30.594Z,4.97
2022-11-26T13:24:37.026Z,4.77
2022-11-26T13:27:40.909Z,4.17
2022-11-26T13:31:04.294Z,4.70
2022-11-26T13:34:42.590Z,4.83
2022-11-26T13:38:00.900Z,5.53
2022-11-26T13:41:30.070Z,4.50
2022-11-26T13:45:01.348Z,4.03
2022-11-26T13:47:54.315Z,6.47
2022-11-26T13:50:58.470Z,4.23
2022-11-26T13:53:44.544Z,4.80
2022-11-26T13:56:16.156Z,5.50
2022-11-26T13:58:53.877Z,4.47
2022-11-26T14:01:30.291Z,4.67
2022-11-26T14:03:58.950Z,5.13
2022-11-26T14:06:28.173Z,5.20
2022-11-26T14:08:57.333Z,4.73
2022-11-26T14:11:46.807Z,6.47
2022-11-26T14:14:26.554Z,7.03
2022-11-26T14:17:12.403Z,5.43
2022-11-26T14:19:58.974Z,4.63
2022-11-26T14:22:38.969Z,5.50
2022-11-26T14:25:13.573Z,4.07
2022-11-26T14:27:56.002Z,7.43
2022-11-26T14:30:28.071Z,4.63
2022-11-26T14:33:27.530Z,5.10
2022-11-26T14:35:57.214Z,5.23
2022-11-26T14:38:31.624Z,6.13
2022-11-26T14:41:02.389Z,5.37
2022-11-26T14:43:30.565Z,5.83
2022-11-26T14:46:18.757Z,5.60
2022-11-26T14:48:51.073Z,4.73
2022-11-26T14:51:28.095Z,4.97
2022-11-26T14:53:58.927Z,4.67
2022-11-26T14:56:30.036Z,5.00
2022-11-26T14:59:02.337Z,5.17
2022-11-26T15:01:32.947Z,4.97
2022-11-26T15:04:06.775Z,4.30
2022-11-26T15:06:43.389Z,4.63
2022-11-26T15:09:25.670Z,5.43
2022-11-26T15:12:15.713Z,5.60
2022-11-26T15:14:59.161Z,4.83
2022-11-26T15:17:32.504Z,4.97
2022-11-26T15:20:13.295Z,4.73
2022-11-26T15:22:53.784Z,5.40
2022-11-26T15:25:26.664Z,5.00
2022-11-26T15:28:06.289Z,4.93
2022-11-26T15:30:39.292Z,5.50
2022-11-26T15:33:10.977Z,5.50
2022-11-26T15:35:40.615Z,4.97
2022-11-26T15:38:20.698Z,4.80
2022-11-26T15:41:16.833Z,4.07
2022-11-26T15:43:53.945Z,5.50
2022-11-26T15:46:36.778Z,6.03
2022-11-26T15:49:18.360Z,4.83
2022-11-26T15:52:15.036Z,6.10
2022-11-26T15:55:13.051Z,5.47
2022-11-26T15:57:43.005Z,4.93
2022-11-26T16:00:40.871Z,4.90
2022-11-26T16:03:50.490Z,4.70
2022-11-26T16:06:41.994Z,4.63
2022-11-26T16:09:16.159Z,5.63
2022-11-26T16:12:01.842Z,6.90
2022-11-26T16:14:39.983Z,5.20
2022-11-26T16:17:19.901Z,5.10
2022-11-26T16:19:59.340Z,4.97
2022-11-26T16:22:34.075Z,4.70
2022-11-26T16:25:33.178Z,5.73
2022-11-26T16:28:15.274Z,4.87
2022-11-26T16:30:44.835Z,4.33
2022-11-26T16:33:12.583Z,3.90
2022-11-26T16:35:46.061Z,4.90
2022-11-26T16:38:26.381Z,5.40
2022-11-26T16:40:55.620Z,5.03
2022-11-26T16:43:23.500Z,4.20
2022-11-26T16:45:55.777Z,4.70
2022-11-26T16:48:27.954Z,4.10
2022-11-26T16:50:57.133Z,4.13
2022-11-26T16:53:24.739Z,3.83
2022-11-26T16:55:54.271Z,4.43
2022-11-26T16:58:37.896Z,4.50
2022-11-26T17:01:05.826Z,4.43
2022-11-26T17:03:33.621Z,8.17
2022-11-26T17:06:14.003Z,6.50
2022-11-26T17:11:31.516Z,4.33
2022-11-26T17:13:59.084Z,5.10
2022-11-26T17:16:27.358Z,4.73
2022-11-26T17:18:55.743Z,4.57
2022-11-26T17:21:23.418Z,4.27
2022-11-26T17:23:50.968Z,5.23
2022-11-26T17:26:24.881Z,4.83
2022-11-26T17:28:52.561Z,4.20
2022-11-26T17:31:20.323Z,5.50
2022-11-26T17:33:47.961Z,5.07
2022-11-26T17:36:23.642Z,5.90
2022-11-26T17:38:52.332Z,5.00
2022-11-26T17:41:20.847Z,4.80
2022-11-26T17:43:48.981Z,4.93
2022-11-26T17:46:23.022Z,5.20
2022-11-26T17:48:56.909Z,5.67
2022-11-26T17:51:27.183Z,6.60
2022-11-26T17:53:54.678Z,6.47
2022-11-26T17:56:25.117Z,5.70
2022-11-26T17:58:53.154Z,7.20
2022-11-26T18:01:21.769Z,6.77
2022-11-26T18:03:49.400Z,6.70
2022-11-26T18:07:14.935Z,6.20
2022-11-26T18:09:43.143Z,7.20
2022-11-26T18:12:26.945Z,6.80
2022-11-26T18:14:58.675Z,8.43
2022-11-26T18:17:26.973Z,8.43
2022-11-26T18:19:54.760Z,9.63
2022-11-26T18:22:26.810Z,8.90
2022-11-26T18:24:57.279Z,8.80
2022-11-26T18:27:31.190Z,9.37
2022-11-26T18:29:59.519Z,10.40
2022-11-26T18:32:27.422Z,9.90
2022-11-26T18:34:55.069Z,8.27
2022-11-26T18:37:22.648Z,9.30
2022-11-26T18:39:50.408Z,8.40
2022-11-26T18:45:10.616Z,9.23
2022-11-26T18:47:38.808Z,8.10
2022-11-26T18:50:08.387Z,9.13
2022-11-26T18:52:36.301Z,10.73
2022-11-26T18:55:07.477Z,11.10
2022-11-26T18:57:35.428Z,11.60
2022-11-26T19:00:05.399Z,11.63
2022-11-26T19:02:36.172Z,11.03
2022-11-26T19:05:05.561Z,11.97
2022-11-26T19:07:33.967Z,10.87
2022-11-26T19:10:01.697Z,10.47
2022-11-26T19:12:30.176Z,11.50
2022-11-26T19:14:57.779Z,11.70
2022-11-26T19:17:25.416Z,16.87
2022-11-26T19:19:52.986Z,14.73
2022-11-26T19:22:20.567Z,12.83
2022-11-26T19:24:49.020Z,9.97
2022-11-26T19:27:17.082Z,8.77
2022-11-26T19:29:44.701Z,9.97
2022-11-26T19:32:12.370Z,10.87
2022-11-26T19:34:40.902Z,10.13
2022-11-26T19:37:08.468Z,10.17
2022-11-26T19:39:36.220Z,15.80
2022-11-26T19:42:03.992Z,14.43
2022-11-26T19:44:31.614Z,13.73
2022-11-26T19:46:59.137Z,12.77
2022-11-26T19:49:28.151Z,16.30
2022-11-26T19:51:56.637Z,13.07
2022-11-26T19:54:24.947Z,12.43
2022-11-26T19:56:52.916Z,12.50
2022-11-26T19:59:21.739Z,11.23
2022-11-26T20:01:50.044Z,11.87
2022-11-26T20:04:19.713Z,11.40
2022-11-26T20:06:47.751Z,15.67
2022-11-26T20:09:15.768Z,16.03
2022-11-26T20:11:43.533Z,15.63
2022-11-26T20:14:11.266Z,16.93
2022-11-26T20:16:44.569Z,14.67
2022-11-26T20:19:13.740Z,16.13
2022-11-26T20:21:41.463Z,12.17
2022-11-26T20:24:17.983Z,13.83
2022-11-26T20:26:48.674Z,11.57
2022-11-26T20:29:18.555Z,11.30
2022-11-26T20:31:52.656Z,10.70
2022-11-26T20:34:30.074Z,10.63
2022-11-26T20:36:58.122Z,11.30
2022-11-26T20:39:25.779Z,10.30
2022-11-26T20:41:53.405Z,11.00
2022-11-26T20:44:21.076Z,9.30
2022-11-26T20:46:48.706Z,10.07
2022-11-26T20:49:16.314Z,9.63
2022-11-26T20:51:43.976Z,10.00
2022-11-26T20:54:11.569Z,10.10
2022-11-26T20:56:39.205Z,10.23
2022-11-26T20:59:09.542Z,11.43
2022-11-26T21:01:38.268Z,10.10
2022-11-26T21:04:06.993Z,10.90
2022-11-26T21:06:36.314Z,10.33
2022-11-26T21:09:07.283Z,10.00
2022-11-26T21:11:35.742Z,11.17
2022-11-26T21:14:04.160Z,9.67
2022-11-26T21:16:34.029Z,10.57
2022-11-26T21:19:01.989Z,10.73
2022-11-26T21:21:30.160Z,9.40
2022-11-26T21:23:59.129Z,15.93
2022-11-26T21:26:28.340Z,15.13
2022-11-26T21:29:01.553Z,18.73
2022-11-26T21:31:32.504Z,17.13
2022-11-26T21:34:07.463Z,18.57
2022-11-26T21:36:37.558Z,22.07
2022-11-26T21:39:06.508Z,23.27
2022-11-26T21:41:34.626Z,24.13
2022-11-26T21:44:03.963Z,26.30
2022-11-26T21:46:38.282Z,23.23
2022-11-26T21:49:08.321Z,21.70
2022-11-26T21:51:36.300Z,19.47
2022-11-26T21:54:04.370Z,18.43
2022-11-26T21:56:33.513Z,27.00
2022-11-26T21:59:02.093Z,14.53
2022-11-26T22:01:36.068Z,12.67
2022-11-26T22:04:15.395Z,13.93
2022-11-26T22:06:47.379Z,12.20
2022-11-26T22:09:17.325Z,10.43
2022-11-26T22:11:46.676Z,9.83
2022-11-26T22:14:17.206Z,7.43
2022-11-26T22:16:47.928Z,7.90
2022-11-26T22:19:15.599Z,6.97
2022-11-26T22:21:43.964Z,7.67
2022-11-26T22:24:17.823Z,6.77
2022-11-26T22:26:46.946Z,6.30
2022-11-26T22:29:20.036Z,6.43
2022-11-26T22:31:48.516Z,6.90
2022-11-26T22:34:22.237Z,6.27
2022-11-26T22:36:50.249Z,6.60
2022-11-26T22:39:20.245Z,6.23
2022-11-26T22:41:49.798Z,7.27
2022-11-26T22:44:18.623Z,7.33
2022-11-26T22:46:46.370Z,6.53
2022-11-26T22:49:18.930Z,6.20
2022-11-26T22:51:47.586Z,6.30
2022-11-26T22:54:18.248Z,7.20
2022-11-26T22:56:46.032Z,7.70
2022-11-26T22:59:15.045Z,8.30
2022-11-26T23:01:42.875Z,9.90
2022-11-26T23:04:11.685Z,9.83
2022-11-26T23:06:40.650Z,10.33
2022-11-26T23:09:11.436Z,7.67
2022-11-26T23:11:42.971Z,7.00
2022-11-26T23:14:12.126Z,7.13
2022-11-26T23:16:43.301Z,7.23
2022-11-26T23:19:17.315Z,7.20
2022-11-26T23:21:47.042Z,6.90
2022-11-26T23:24:17.093Z,6.73
2022-11-26T23:26:45.634Z,6.70
2022-11-26T23:29:14.778Z,6.83
2022-11-26T23:31:45.083Z,5.70
2022-11-26T23:34:14.244Z,6.20
2022-11-26T23:36:42.027Z,5.77
2022-11-26T23:39:13.534Z,6.73
2022-11-26T23:41:41.213Z,6.53
2022-11-26T23:44:08.823Z,6.20
2022-11-26T23:46:36.522Z,6.33
2022-11-26T23:49:05.011Z,6.43
2022-11-26T23:51:33.942Z,5.20
2022-11-26T23:54:01.741Z,5.87
2022-11-26T23:56:34.004Z,5.40
2022-11-26T23:59:05.159Z,5.77
